createdAt,value
2019-04-01T00:00:46.097Z,6.90
2019-04-01T00:03:12.470Z,6.70
2019-04-01T00:05:39.740Z,6.50
2019-04-01T00:08:05.926Z,6.30
2019-04-01T00:10:32.101Z,6.20
2019-04-01T00:12:58.281Z,6.20
2019-04-01T00:15:24.444Z,6.00
2019-04-01T00:17:50.677Z,6.00
2019-04-01T00:20:16.832Z,5.80
2019-04-01T00:22:44.018Z,5.80
2019-04-01T00:25:10.397Z,5.70
2019-04-01T00:27:36.570Z,5.70
2019-04-01T00:30:03.677Z,5.60
2019-04-01T00:32:29.942Z,5.40
2019-04-01T00:34:56.128Z,5.40
2019-04-01T00:37:22.354Z,5.40
2019-04-01T00:39:48.533Z,5.30
2019-04-01T00:42:16.961Z,5.20
2019-04-01T00:44:44.157Z,5.20
2019-04-01T00:47:10.325Z,5.20
2019-04-01T00:49:36.508Z,5.50
2019-04-01T00:52:02.698Z,5.70
2019-04-01T00:54:28.901Z,5.90
2019-04-01T00:56:55.109Z,6.00
2019-04-01T00:59:21.264Z,6.10
2019-04-01T01:01:47.449Z,6.20
2019-04-01T01:04:13.612Z,6.20
2019-04-01T01:06:39.781Z,6.00
2019-04-01T01:09:05.968Z,5.90
2019-04-01T01:11:32.528Z,5.80
2019-04-01T01:13:58.720Z,5.80
2019-04-01T01:16:24.896Z,5.60
2019-04-01T01:18:51.081Z,5.40
2019-04-01T01:21:17.285Z,5.30
2019-04-01T01:23:43.468Z,5.30
2019-04-01T01:26:09.673Z,5.00
2019-04-01T01:28:35.869Z,5.00
2019-04-01T01:31:02.093Z,5.00
2019-04-01T01:33:29.096Z,4.90
2019-04-01T01:35:55.265Z,4.70
2019-04-01T01:38:21.455Z,4.70
2019-04-01T01:40:47.629Z,4.70
2019-04-01T01:43:13.925Z,4.70
2019-04-01T01:45:40.092Z,4.60
2019-04-01T01:48:06.261Z,4.50
2019-04-01T01:50:33.061Z,4.40
2019-04-01T01:52:59.507Z,4.30
2019-04-01T01:55:25.700Z,4.30
2019-04-01T01:57:51.864Z,4.10
2019-04-01T02:00:18.465Z,4.10
2019-04-01T02:02:44.669Z,4.20
2019-04-01T02:05:11.257Z,4.10
2019-04-01T02:07:37.465Z,4.10
2019-04-01T02:10:04.628Z,4.10
2019-04-01T02:12:30.805Z,4.10
2019-04-01T02:14:57.005Z,4.00
2019-04-01T02:17:23.198Z,4.00
2019-04-01T02:19:49.372Z,3.90
2019-04-01T02:22:15.560Z,3.90
2019-04-01T02:24:41.767Z,3.80
2019-04-01T02:27:07.928Z,3.80
2019-04-01T02:29:34.106Z,3.80
2019-04-01T02:32:02.322Z,3.80
2019-04-01T02:34:28.484Z,3.70
2019-04-01T02:36:54.654Z,3.70
2019-04-01T02:39:20.854Z,3.60
2019-04-01T02:41:47.255Z,3.70
2019-04-01T02:44:13.440Z,3.70
2019-04-01T02:46:39.727Z,3.60
2019-04-01T02:49:06.085Z,3.50
2019-04-01T02:51:32.267Z,3.40
2019-04-01T02:53:58.429Z,3.40
2019-04-01T02:56:24.613Z,3.40
2019-04-01T02:58:50.888Z,3.50
2019-04-01T03:01:17.356Z,3.40
2019-04-01T03:03:43.642Z,3.40
2019-04-01T03:06:09.937Z,3.40
2019-04-01T03:08:36.167Z,3.30
2019-04-01T03:11:02.432Z,3.30
2019-04-01T03:13:28.593Z,3.30
2019-04-01T03:15:54.795Z,3.30
2019-04-01T03:18:21.006Z,3.30
2019-04-01T03:20:47.185Z,3.20
2019-04-01T03:23:13.368Z,3.10
2019-04-01T03:25:39.538Z,3.10
2019-04-01T03:28:05.753Z,3.10
2019-04-01T03:30:31.916Z,3.00
2019-04-01T03:32:58.104Z,2.90
2019-04-01T03:35:24.273Z,3.00
2019-04-01T03:37:50.469Z,3.00
2019-04-01T03:40:16.703Z,2.90
2019-04-01T03:42:42.979Z,3.10
2019-04-01T03:45:09.665Z,3.10
2019-04-01T03:47:35.846Z,3.20
2019-04-01T03:50:02.627Z,3.20
2019-04-01T03:52:28.802Z,3.20
2019-04-01T03:54:58.020Z,3.30
2019-04-01T03:57:24.210Z,3.10
2019-04-01T03:59:50.377Z,3.10
2019-04-01T04:02:16.654Z,3.00
2019-04-01T04:04:42.812Z,3.00
2019-04-01T04:07:09.003Z,3.00
2019-04-01T04:09:35.170Z,2.90
2019-04-01T04:12:01.378Z,2.90
2019-04-01T04:14:27.569Z,2.90
2019-04-01T04:16:53.752Z,2.80
2019-04-01T04:19:20.311Z,2.70
2019-04-01T04:21:46.472Z,2.80
2019-04-01T04:24:12.657Z,2.80
2019-04-01T04:26:42.169Z,2.80
2019-04-01T04:29:08.702Z,2.80
2019-04-01T04:31:34.942Z,2.80
2019-04-01T04:34:01.120Z,2.90
2019-04-01T04:36:27.316Z,2.90
2019-04-01T04:38:53.502Z,2.80
2019-04-01T04:41:19.672Z,2.90
2019-04-01T04:43:45.892Z,3.10
2019-04-01T04:46:12.126Z,3.30
2019-04-01T04:48:38.292Z,3.30
2019-04-01T04:51:04.487Z,3.40
2019-04-01T04:53:30.651Z,3.50
2019-04-01T04:55:56.848Z,3.70
2019-04-01T04:58:23.083Z,3.80
2019-04-01T05:00:49.320Z,3.90
2019-04-01T05:03:15.544Z,4.10
2019-04-01T05:05:41.901Z,4.30
2019-04-01T05:08:08.376Z,4.50
2019-04-01T05:10:34.539Z,4.60
2019-04-01T05:13:00.809Z,4.80
2019-04-01T05:15:27.259Z,5.00
2019-04-01T05:17:53.495Z,5.10
2019-04-01T05:20:19.728Z,5.20
2019-04-01T05:22:46.964Z,5.30
2019-04-01T05:25:13.129Z,5.40
2019-04-01T05:27:40.601Z,5.60
2019-04-01T05:30:07.901Z,5.80
2019-04-01T05:32:35.076Z,6.00
2019-04-01T05:35:03.261Z,6.10
2019-04-01T05:37:29.552Z,6.40
2019-04-01T05:39:56.536Z,6.50
2019-04-01T05:42:22.721Z,6.70
2019-04-01T05:44:48.908Z,7.00
2019-04-01T05:47:19.792Z,7.30
2019-04-01T05:49:45.969Z,7.60
2019-04-01T05:52:12.458Z,7.90
2019-04-01T05:54:38.811Z,7.70
2019-04-01T05:57:05.047Z,7.60
2019-04-01T05:59:31.289Z,7.90
2019-04-01T06:01:57.451Z,8.20
2019-04-01T06:04:23.630Z,8.60
2019-04-01T06:06:50.041Z,8.90
2019-04-01T06:09:16.305Z,9.30
2019-04-01T06:11:42.993Z,9.70
2019-04-01T06:14:09.187Z,10.00
2019-04-01T06:16:35.608Z,10.60
2019-04-01T06:19:02.001Z,11.00
2019-04-01T06:21:28.870Z,11.20
2019-04-01T06:23:55.453Z,11.40
2019-04-01T06:26:21.721Z,11.30
2019-04-01T06:28:48.899Z,11.40
2019-04-01T06:31:15.685Z,12.00
2019-04-01T06:33:41.970Z,12.20
2019-04-01T06:36:08.354Z,12.60
2019-04-01T06:38:34.535Z,13.30
2019-04-01T06:41:00.908Z,13.00
2019-04-01T06:43:27.230Z,13.60
2019-04-01T06:45:53.656Z,13.70
2019-04-01T06:48:19.885Z,14.20
2019-04-01T06:50:46.085Z,14.40
2019-04-01T06:53:12.252Z,14.30
2019-04-01T06:55:38.472Z,14.40
2019-04-01T06:58:04.736Z,15.20
2019-04-01T07:00:30.937Z,15.40
2019-04-01T07:02:57.134Z,14.60
2019-04-01T07:05:23.333Z,14.60
2019-04-01T07:07:49.491Z,15.40
2019-04-01T07:10:15.668Z,15.70
2019-04-01T07:12:42.219Z,15.30
2019-04-01T07:15:08.801Z,15.30
2019-04-01T07:17:35.097Z,15.70
2019-04-01T07:20:01.601Z,16.40
2019-04-01T07:22:27.820Z,16.70
2019-04-01T07:24:53.989Z,17.40
2019-04-01T07:27:20.248Z,18.30
2019-04-01T07:29:46.403Z,17.90
2019-04-01T07:32:14.583Z,16.70
2019-04-01T07:34:41.032Z,16.60
2019-04-01T07:37:07.249Z,16.70
2019-04-01T07:39:33.544Z,17.70
2019-04-01T07:41:59.807Z,17.80
2019-04-01T07:44:26.000Z,17.10
2019-04-01T07:46:52.300Z,17.40
2019-04-01T07:49:18.511Z,17.40
2019-04-01T07:51:44.969Z,17.80
2019-04-01T07:54:11.179Z,17.80
2019-04-01T07:56:37.533Z,17.80
2019-04-01T07:59:03.838Z,17.30
2019-04-01T08:01:30.301Z,16.90
2019-04-01T08:03:56.487Z,17.30
2019-04-01T08:06:22.657Z,18.40
2019-04-01T08:08:48.885Z,19.60
2019-04-01T08:11:16.279Z,20.50
2019-04-01T08:13:42.583Z,20.30
2019-04-01T08:16:08.862Z,19.60
2019-04-01T08:18:37.032Z,19.30
2019-04-01T08:21:03.452Z,19.40
2019-04-01T08:23:29.704Z,18.80
2019-04-01T08:25:55.912Z,18.50
2019-04-01T08:28:23.811Z,19.00
2019-04-01T08:30:51.258Z,19.90
2019-04-01T08:33:17.447Z,19.20
2019-04-01T08:35:44.240Z,19.40
2019-04-01T08:38:10.706Z,19.60
2019-04-01T08:40:38.185Z,20.80
2019-04-01T08:43:04.445Z,22.30
2019-04-01T08:45:30.622Z,22.20
2019-04-01T08:47:56.909Z,21.50
2019-04-01T08:50:23.411Z,21.50
2019-04-01T08:52:49.787Z,22.40
2019-04-01T08:55:16.042Z,23.60
2019-04-01T08:57:42.230Z,21.60
2019-04-01T09:00:08.912Z,23.10
2019-04-01T09:02:35.559Z,21.90
2019-04-01T09:05:02.249Z,21.10
2019-04-01T09:07:29.108Z,21.30
2019-04-01T09:09:56.006Z,22.40
2019-04-01T09:12:22.779Z,22.40
2019-04-01T09:14:49.172Z,21.50
2019-04-01T09:17:15.329Z,21.20
2019-04-01T09:19:41.554Z,21.80
2019-04-01T09:22:07.850Z,20.60
2019-04-01T09:24:34.149Z,20.50
2019-04-01T09:27:00.336Z,21.90
2019-04-01T09:29:26.538Z,22.10
2019-04-01T09:31:52.710Z,22.60
2019-04-01T09:34:18.897Z,23.60
2019-04-01T09:36:45.091Z,22.20
2019-04-01T09:39:11.268Z,21.80
2019-04-01T09:41:37.469Z,23.80
2019-04-01T09:44:03.693Z,22.10
2019-04-01T09:46:29.868Z,21.90
2019-04-01T09:48:58.714Z,22.90
2019-04-01T09:51:26.941Z,23.20
2019-04-01T09:54:06.277Z,21.80
2019-04-01T09:56:32.467Z,22.10
2019-04-01T09:58:58.636Z,23.60
2019-04-01T10:01:24.831Z,25.40
2019-04-01T10:03:51.007Z,25.30
2019-04-01T10:06:17.207Z,24.10
2019-04-01T10:08:43.526Z,24.10
2019-04-01T10:11:12.485Z,22.80
2019-04-01T10:13:37.968Z,22.60
2019-04-01T10:16:04.358Z,22.50
2019-04-01T10:18:31.083Z,23.20
2019-04-01T10:20:57.576Z,22.10
2019-04-01T10:23:30.173Z,23.40
2019-04-01T10:25:56.360Z,23.30
2019-04-01T10:28:22.526Z,22.60
2019-04-01T10:30:49.004Z,23.10
2019-04-01T10:33:15.357Z,23.10
2019-04-01T10:35:41.638Z,23.80
2019-04-01T10:38:07.836Z,23.80
2019-04-01T10:40:34.256Z,23.80
2019-04-01T10:43:00.474Z,23.30
2019-04-01T10:45:26.641Z,23.20
2019-04-01T10:47:52.854Z,24.50
2019-04-01T10:50:19.452Z,24.00
2019-04-01T10:52:45.798Z,24.40
2019-04-01T10:55:12.210Z,25.50
2019-04-01T10:57:38.662Z,24.60
2019-04-01T11:00:07.473Z,22.90
2019-04-01T11:02:33.993Z,22.20
2019-04-01T11:05:00.386Z,22.60
2019-04-01T11:07:26.757Z,24.30
2019-04-01T11:09:52.925Z,24.40
2019-04-01T11:12:19.128Z,25.30
2019-04-01T11:14:45.284Z,24.80
2019-04-01T11:17:11.580Z,25.00
2019-04-01T11:19:37.774Z,24.50
2019-04-01T11:22:04.184Z,22.90
2019-04-01T11:24:30.446Z,21.70
2019-04-01T11:26:56.645Z,22.20
2019-04-01T11:29:25.782Z,22.70
2019-04-01T11:31:52.180Z,23.40
2019-04-01T11:34:19.295Z,23.80
2019-04-01T11:36:45.634Z,22.90
2019-04-01T11:39:12.084Z,21.80
2019-04-01T11:41:38.346Z,21.70
2019-04-01T11:44:04.654Z,20.30
2019-04-01T11:46:31.004Z,19.60
2019-04-01T11:48:57.211Z,19.60
2019-04-01T11:51:32.738Z,18.80
2019-04-01T11:53:51.421Z,20.60
2019-04-01T11:56:17.920Z,21.40
2019-04-01T11:58:44.088Z,22.30
2019-04-01T12:01:10.277Z,19.90
2019-04-01T12:03:36.800Z,18.50
2019-04-01T12:06:02.984Z,17.70
2019-04-01T12:08:30.450Z,17.30
2019-04-01T12:10:56.766Z,17.20
2019-04-01T12:13:22.928Z,16.90
2019-04-01T12:15:49.108Z,16.70
2019-04-01T12:18:15.553Z,17.40
2019-04-01T12:20:41.736Z,17.10
2019-04-01T12:23:08.032Z,17.10
2019-04-01T12:25:34.219Z,16.90
2019-04-01T12:28:01.389Z,16.80
2019-04-01T12:30:29.066Z,16.70
2019-04-01T12:32:55.295Z,16.40
2019-04-01T12:35:21.666Z,16.10
2019-04-01T12:37:47.827Z,16.70
2019-04-01T12:40:14.321Z,16.60
2019-04-01T12:42:41.185Z,16.50
2019-04-01T12:45:07.670Z,16.20
2019-04-01T12:47:33.934Z,16.10
2019-04-01T12:50:00.266Z,16.20
2019-04-01T12:52:27.497Z,16.20
2019-04-01T12:54:53.683Z,16.30
2019-04-01T12:57:20.951Z,16.30
2019-04-01T12:59:47.276Z,16.30
2019-04-01T13:02:13.556Z,16.40
2019-04-01T13:04:40.621Z,16.30
2019-04-01T13:07:07.037Z,16.20
2019-04-01T13:09:33.233Z,16.50
2019-04-01T13:11:59.401Z,16.60
2019-04-01T13:14:25.586Z,15.80
2019-04-01T13:16:51.877Z,15.50
2019-04-01T13:19:18.888Z,15.60
2019-04-01T13:21:45.066Z,15.70
2019-04-01T13:24:11.266Z,15.90
2019-04-01T13:26:37.419Z,15.90
2019-04-01T13:29:03.591Z,15.70
2019-04-01T13:31:29.812Z,15.60
2019-04-01T13:33:56.065Z,15.70
2019-04-01T13:36:22.259Z,15.90
2019-04-01T13:38:48.449Z,16.10
2019-04-01T13:41:15.629Z,15.90
2019-04-01T13:43:42.089Z,15.70
2019-04-01T13:46:08.278Z,15.60
2019-04-01T13:48:34.529Z,15.50
2019-04-01T13:51:01.331Z,15.60
2019-04-01T13:53:28.638Z,15.80
2019-04-01T13:55:54.889Z,16.00
2019-04-01T13:58:21.238Z,16.10
2019-04-01T14:00:48.449Z,15.70
2019-04-01T14:03:14.628Z,16.10
2019-04-01T14:05:40.848Z,16.30
2019-04-01T14:08:07.148Z,16.20
2019-04-01T14:10:33.313Z,16.10
2019-04-01T14:13:00.789Z,15.80
2019-04-01T14:15:27.007Z,15.90
2019-04-01T14:17:53.264Z,15.90
2019-04-01T14:20:19.453Z,15.80
2019-04-01T14:22:45.705Z,15.80
2019-04-01T14:25:12.078Z,16.00
2019-04-01T14:27:39.266Z,16.10
2019-04-01T14:30:06.129Z,16.10
2019-04-01T14:32:32.611Z,16.10
2019-04-01T14:34:59.835Z,15.90
2019-04-01T14:37:29.864Z,15.60
2019-04-01T14:39:54.261Z,15.70
2019-04-01T14:42:20.605Z,15.60
2019-04-01T14:44:58.224Z,15.50
2019-04-01T14:47:24.236Z,15.40
2019-04-01T14:49:50.455Z,15.50
2019-04-01T14:52:25.810Z,15.50
2019-04-01T14:54:44.757Z,15.70
2019-04-01T14:57:11.243Z,15.50
2019-04-01T14:59:37.572Z,15.30
2019-04-01T15:02:03.958Z,15.40
2019-04-01T15:04:31.180Z,15.60
2019-04-01T15:06:57.652Z,15.60
2019-04-01T15:09:23.974Z,15.50
2019-04-01T15:11:50.240Z,15.40
2019-04-01T15:14:16.407Z,15.60
2019-04-01T15:16:43.766Z,15.60
2019-04-01T15:19:12.856Z,15.60
2019-04-01T15:21:38.545Z,15.80
2019-04-01T15:24:04.814Z,15.80
2019-04-01T15:26:34.005Z,15.80
2019-04-01T15:29:00.893Z,15.60
2019-04-01T15:31:27.156Z,15.60
2019-04-01T15:33:53.317Z,15.60
2019-04-01T15:36:20.682Z,15.70
2019-04-01T15:38:46.900Z,15.80
2019-04-01T15:41:13.325Z,15.80
2019-04-01T15:43:40.149Z,15.60
2019-04-01T15:46:07.672Z,15.60
2019-04-01T15:48:37.019Z,15.60
2019-04-01T15:51:03.539Z,15.70
2019-04-01T15:53:29.761Z,15.50
2019-04-01T15:55:55.920Z,15.50
2019-04-01T15:58:22.101Z,15.50
2019-04-01T16:00:48.389Z,15.30
2019-04-01T16:03:14.573Z,15.40
2019-04-01T16:05:40.732Z,15.40
2019-04-01T16:08:06.940Z,15.30
2019-04-01T16:10:33.324Z,15.30
2019-04-01T16:12:59.522Z,15.20
2019-04-01T16:15:25.704Z,15.20
2019-04-01T16:17:53.781Z,15.20
2019-04-01T16:20:20.086Z,15.10
2019-04-01T16:22:46.248Z,15.10
2019-04-01T16:25:13.424Z,15.10
2019-04-01T16:27:42.790Z,15.10
2019-04-01T16:30:08.301Z,15.10
2019-04-01T16:32:34.969Z,15.20
2019-04-01T16:35:04.812Z,15.00
2019-04-01T16:37:31.037Z,15.00
2019-04-01T16:39:57.313Z,14.90
2019-04-01T16:42:23.523Z,14.80
2019-04-01T16:44:49.819Z,14.80
2019-04-01T16:47:16.097Z,14.70
2019-04-01T16:49:42.262Z,14.70
2019-04-01T16:52:08.571Z,14.70
2019-04-01T16:54:34.732Z,14.60
2019-04-01T16:57:00.897Z,14.50
2019-04-01T16:59:28.327Z,14.50
2019-04-01T17:01:57.703Z,14.40
2019-04-01T17:04:24.163Z,14.40
2019-04-01T17:06:50.520Z,14.40
2019-04-01T17:09:16.706Z,14.40
2019-04-01T17:11:42.913Z,14.30
2019-04-01T17:14:09.575Z,14.20
2019-04-01T17:16:36.241Z,14.10
2019-04-01T17:19:02.793Z,14.10
2019-04-01T17:21:29.053Z,14.10
2019-04-01T17:23:56.232Z,14.00
2019-04-01T17:26:23.112Z,13.90
2019-04-01T17:28:49.580Z,13.90
2019-04-01T17:31:15.776Z,13.80
2019-04-01T17:33:42.064Z,13.70
2019-04-01T17:36:08.245Z,13.60
2019-04-01T17:38:36.111Z,13.60
2019-04-01T17:41:02.802Z,13.50
2019-04-01T17:43:29.050Z,13.40
2019-04-01T17:45:55.235Z,13.40
2019-04-01T17:48:21.516Z,13.30
2019-04-01T17:50:47.748Z,13.30
2019-04-01T17:53:13.913Z,13.20
2019-04-01T17:55:40.125Z,13.10
2019-04-01T17:58:06.396Z,13.10
2019-04-01T18:00:37.334Z,13.00
2019-04-01T18:03:04.165Z,12.90
2019-04-01T18:05:31.309Z,12.90
2019-04-01T18:07:57.512Z,12.90
2019-04-01T18:10:24.000Z,12.80
2019-04-01T18:12:51.087Z,12.70
2019-04-01T18:15:20.732Z,12.70
2019-04-01T18:17:46.672Z,12.70
2019-04-01T18:20:13.063Z,12.60
2019-04-01T18:22:39.358Z,12.60
2019-04-01T18:25:05.628Z,12.60
2019-04-01T18:27:31.828Z,12.50
2019-04-01T18:29:57.992Z,12.50
2019-04-01T18:32:24.226Z,12.50
2019-04-01T18:34:50.452Z,12.40
2019-04-01T18:37:16.717Z,12.40
2019-04-01T18:39:48.480Z,12.30
2019-04-01T18:42:10.987Z,12.20
2019-04-01T18:44:38.212Z,12.20
2019-04-01T18:47:04.388Z,12.20
2019-04-01T18:49:30.600Z,12.20
2019-04-01T18:51:56.921Z,12.10
2019-04-01T18:54:23.086Z,12.00
2019-04-01T18:56:49.253Z,12.00
2019-04-01T18:59:15.440Z,11.90
2019-04-01T19:01:41.603Z,11.90
2019-04-01T19:04:07.909Z,11.80
2019-04-01T19:06:34.164Z,11.70
2019-04-01T19:09:09.042Z,11.70
2019-04-01T19:11:30.356Z,11.60
2019-04-01T19:13:56.625Z,11.50
2019-04-01T19:16:23.250Z,11.50
2019-04-01T19:18:49.518Z,11.40
2019-04-01T19:21:15.682Z,11.50
2019-04-01T19:23:41.865Z,11.40
2019-04-01T19:26:10.071Z,11.30
2019-04-01T19:28:36.102Z,11.20
2019-04-01T19:31:03.281Z,11.20
2019-04-01T19:33:29.453Z,11.20
2019-04-01T19:35:55.897Z,11.10
2019-04-01T19:38:22.115Z,11.10
2019-04-01T19:40:48.341Z,11.10
2019-04-01T19:43:16.140Z,11.10
2019-04-01T19:45:42.672Z,11.10
2019-04-01T19:48:08.832Z,11.10
2019-04-01T19:50:35.021Z,11.10
2019-04-01T19:53:02.695Z,11.00
2019-04-01T19:55:29.191Z,11.00
2019-04-01T19:57:56.265Z,10.90
2019-04-01T20:00:27.975Z,10.80
2019-04-01T20:02:50.920Z,10.80
2019-04-01T20:05:17.080Z,10.70
2019-04-01T20:07:44.106Z,10.60
2019-04-01T20:10:12.749Z,10.60
2019-04-01T20:12:38.933Z,10.50
2019-04-01T20:15:09.531Z,10.40
2019-04-01T20:17:36.291Z,10.30
2019-04-01T20:20:04.748Z,10.20
2019-04-01T20:22:30.907Z,10.10
2019-04-01T20:24:57.112Z,10.00
2019-04-01T20:27:23.296Z,10.00
2019-04-01T20:29:49.458Z,9.90
2019-04-01T20:32:17.683Z,9.80
2019-04-01T20:34:56.160Z,9.70
2019-04-01T20:37:12.043Z,9.50
2019-04-01T20:39:38.262Z,9.40
2019-04-01T20:42:07.213Z,9.40
2019-04-01T20:44:32.933Z,9.30
2019-04-01T20:46:59.179Z,9.30
2019-04-01T20:49:25.355Z,9.20
2019-04-01T20:51:51.546Z,9.10
2019-04-01T20:54:17.716Z,9.10
2019-04-01T20:56:43.897Z,9.00
2019-04-01T20:59:10.403Z,8.90
2019-04-01T21:01:36.956Z,8.80
2019-04-01T21:04:03.279Z,8.70
2019-04-01T21:06:29.438Z,8.70
2019-04-01T21:08:55.625Z,8.60
2019-04-01T21:11:21.796Z,8.60
2019-04-01T21:13:48.001Z,8.60
2019-04-01T21:16:14.170Z,8.40
2019-04-01T21:18:40.369Z,8.30
2019-04-01T21:21:06.551Z,8.10
2019-04-01T21:23:32.760Z,8.00
2019-04-01T21:25:58.999Z,8.00
2019-04-01T21:28:25.527Z,7.90
2019-04-01T21:30:51.701Z,7.80
2019-04-01T21:33:18.876Z,7.70
2019-04-01T21:35:45.083Z,7.50
2019-04-01T21:38:11.254Z,7.40
2019-04-01T21:40:37.416Z,7.40
2019-04-01T21:43:03.619Z,7.30
2019-04-01T21:45:29.820Z,7.30
2019-04-01T21:47:55.989Z,7.20
2019-04-01T21:50:22.161Z,7.00
2019-04-01T21:52:48.636Z,6.90
2019-04-01T21:55:14.941Z,6.80
2019-04-01T21:57:41.120Z,6.80
2019-04-01T22:00:09.496Z,6.80
2019-04-01T22:02:37.776Z,6.80
2019-04-01T22:05:05.850Z,6.80
2019-04-01T22:07:32.100Z,6.80
2019-04-01T22:09:58.289Z,6.80
2019-04-01T22:12:24.492Z,6.80
2019-04-01T22:14:50.664Z,6.70
2019-04-01T22:17:17.095Z,6.50
2019-04-01T22:19:43.289Z,6.50
2019-04-01T22:22:09.466Z,6.50
2019-04-01T22:24:35.628Z,6.50
2019-04-01T22:27:01.824Z,6.40
2019-04-01T22:29:27.980Z,6.40
2019-04-01T22:31:54.152Z,6.40
2019-04-01T22:34:20.309Z,6.40
2019-04-01T22:36:46.496Z,6.40
2019-04-01T22:39:26.299Z,6.40
2019-04-01T22:41:42.896Z,6.40
2019-04-01T22:44:09.089Z,6.40
2019-04-01T22:46:35.250Z,6.30
2019-04-01T22:49:01.457Z,6.20
2019-04-01T22:51:27.621Z,6.20
2019-04-01T22:53:53.796Z,6.10
2019-04-01T22:56:20.965Z,5.90
2019-04-01T22:58:47.147Z,5.90
2019-04-01T23:01:13.301Z,5.90
2019-04-01T23:03:40.209Z,5.70
2019-04-01T23:06:06.788Z,5.60
2019-04-01T23:08:33.101Z,5.60
2019-04-01T23:10:59.266Z,5.60
2019-04-01T23:13:25.457Z,5.70
2019-04-01T23:15:51.612Z,5.50
2019-04-01T23:18:17.773Z,5.40
2019-04-01T23:20:43.948Z,5.30
2019-04-01T23:23:10.126Z,5.30
2019-04-01T23:25:36.293Z,5.30
2019-04-01T23:28:02.461Z,5.30
2019-04-01T23:30:28.663Z,5.30
2019-04-01T23:32:54.825Z,5.30
2019-04-01T23:35:21.024Z,5.20
2019-04-01T23:37:47.192Z,5.10
2019-04-01T23:40:13.460Z,5.10
2019-04-01T23:42:39.650Z,5.00
2019-04-01T23:45:06.524Z,5.00
2019-04-01T23:47:32.688Z,4.90
2019-04-01T23:49:58.912Z,4.80
2019-04-01T23:52:25.062Z,4.70
2019-04-01T23:54:51.217Z,4.70
2019-04-01T23:57:17.420Z,4.70
2019-04-01T23:59:43.604Z,4.80
